Gary Chicago International Airport
KGYY : rendu visible

Aérodrome :











RETROUVEZ-NOUS SUR...

 
LOGIN :

S'inscrire | Disclaimer

   EN    FR    IT 

 









Légende :    VFR   VFR Marginal   IFR   IFR Intensif   IFR Très Intensif
Visi : 
Plafond : 
>= 8 km
>= 3000ft
5 à 8 km
1000 à 3000 ft
1500m à 5 km
500 à 1000 ft
800 à 1500m
200 à 500 ft
< 800m
< 200 ft
Symboles :   Orages  Brouillard  Fortes neiges  Fortes précipitations  Vent > 20 kt






- Altitude de l'aérodrome : 591 ft
- Code IATA : GYY


KGYY - Gary Chicago International

DERNIER METAR :
  • 080945Z 07005KT 2 1/2SM BR OVC003 10/10 A2974

METARs EXPIRÉS :
  • 080915Z AUTO 04005KT 2SM BR OVC003 10/10 A2974 RMK AO2 T00980098
  • 080855Z AUTO 06006KT 2 1/2SM BR OVC003 10/10 A2974 RMK AO2 T00960096
  • 080835Z AUTO 04008KT 2 1/2SM BR OVC005 10/09 A2974 RMK AO2 T00950094
  • 080815Z AUTO 03008KT 3SM BR OVC005 10/10 A2974 RMK AO2 T00980095
  • 080755Z AUTO 03008KT 4SM BR OVC007 11/10 A2973 RMK AO2 T01050098
  • 080735Z AUTO 03005KT 4SM BR BKN009 OVC014 11/10 A2973 RMK AO2 T01050099
  • 080715Z AUTO 02004KT 4SM BR BKN012 BKN018 11/10 A2973 RMK AO2 T01050095

TAF KGYY
Valide du 08 à 06h jusqu'au 09 à 06h UTC


080535Z 0806/0906 02004KT P6SM SKC
FM080900 00000KT 1SM BR OVC003
FM081500 21006KT P6SM SCT050
FM081800 03008KT 5SM HZ SCT004
FM082200 32012G18KT 6SM -SHRA SCT025 OVC050
PROB30 0822/0824 3SM TSRA BKN030CB
FM090100 33010KT P6SM OVC040
FM090400 29014G22KT P6SM SKC



MET'MAP, la Météo Aéronautique d'un coup d'oeil ! - Copyright ORBIFLY Décembre 2007 - Disclaimer

ORBIFLY MET'MAP TEAM :

Programmation & Développement : Alexandra Zaïnal
Sur une idée originale de : Baudouin d'Aumeries
Assistance à la programmation : Marc-Olivier Méhu
Soutien technique & logistique : Manuel Goepfert

Contact : metmap@orbifly.com




SOURCES & CREDITS :

   NOAA       Earth
Advisory